sensor_id;sensor_type;location;lat;lon;timestamp;temperature;humidity
26304;DHT22;57113;48.680;8.890;2022-08-21T00:01:12;24.20;82.40
26304;DHT22;57113;48.680;8.890;2022-08-21T00:03:39;24.30;82.40
26304;DHT22;57113;48.680;8.890;2022-08-21T00:06:06;24.30;82.40
26304;DHT22;57113;48.680;8.890;2022-08-21T00:08:32;24.30;82.40
26304;DHT22;57113;48.680;8.890;2022-08-21T00:10:58;24.20;82.40
26304;DHT22;57113;48.680;8.890;2022-08-21T00:13:24;24.20;82.40
26304;DHT22;57113;48.680;8.890;2022-08-21T00:15:49;24.20;83.30
26304;DHT22;57113;48.680;8.890;2022-08-21T00:18:16;24.20;82.40
26304;DHT22;57113;48.680;8.890;2022-08-21T00:20:43;24.20;82.40
26304;DHT22;57113;48.680;8.890;2022-08-21T00:23:09;24.20;82.30
26304;DHT22;57113;48.680;8.890;2022-08-21T00:25:36;24.20;82.30
26304;DHT22;57113;48.680;8.890;2022-08-21T00:28:02;24.20;82.30
26304;DHT22;57113;48.680;8.890;2022-08-21T00:30:28;24.20;82.30
26304;DHT22;57113;48.680;8.890;2022-08-21T00:32:56;24.20;82.30
26304;DHT22;57113;48.680;8.890;2022-08-21T00:35:31;24.20;82.30
26304;DHT22;57113;48.680;8.890;2022-08-21T00:37:57;24.20;82.30
26304;DHT22;57113;48.680;8.890;2022-08-21T00:40:30;24.20;82.30
26304;DHT22;57113;48.680;8.890;2022-08-21T00:42:56;24.20;82.30
26304;DHT22;57113;48.680;8.890;2022-08-21T00:45:22;24.20;82.30
26304;DHT22;57113;48.680;8.890;2022-08-21T00:47:49;24.20;82.30
26304;DHT22;57113;48.680;8.890;2022-08-21T00:50:16;24.20;82.30
26304;DHT22;57113;48.680;8.890;2022-08-21T00:52:41;24.10;82.20
26304;DHT22;57113;48.680;8.890;2022-08-21T00:55:09;24.10;82.20
26304;DHT22;57113;48.680;8.890;2022-08-21T00:57:45;24.10;82.20
26304;DHT22;57113;48.680;8.890;2022-08-21T01:00:16;24.10;82.10
26304;DHT22;57113;48.680;8.890;2022-08-21T01:02:43;24.10;82.10
26304;DHT22;57113;48.680;8.890;2022-08-21T01:05:09;24.10;82.10
26304;DHT22;57113;48.680;8.890;2022-08-21T01:07:35;24.10;82.20
26304;DHT22;57113;48.680;8.890;2022-08-21T01:10:01;24.10;82.10
26304;DHT22;57113;48.680;8.890;2022-08-21T01:12:27;24.10;82.10
26304;DHT22;57113;48.680;8.890;2022-08-21T01:14:52;24.10;82.10
26304;DHT22;57113;48.680;8.890;2022-08-21T01:17:19;24.10;82.10
26304;DHT22;57113;48.680;8.890;2022-08-21T01:19:45;24.10;82.00
26304;DHT22;57113;48.680;8.890;2022-08-21T01:22:12;24.00;82.00
26304;DHT22;57113;48.680;8.890;2022-08-21T01:24:38;24.00;82.10
26304;DHT22;57113;48.680;8.890;2022-08-21T01:27:04;24.10;82.10
26304;DHT22;57113;48.680;8.890;2022-08-21T01:32:06;24.00;82.00
26304;DHT22;57113;48.680;8.890;2022-08-21T01:34:34;24.00;82.00
26304;DHT22;57113;48.680;8.890;2022-08-21T01:37:01;24.00;82.00
26304;DHT22;57113;48.680;8.890;2022-08-21T01:39:28;24.00;82.00
26304;DHT22;57113;48.680;8.890;2022-08-21T01:41:54;24.00;81.90
26304;DHT22;57113;48.680;8.890;2022-08-21T01:44:21;24.00;82.00
26304;DHT22;57113;48.680;8.890;2022-08-21T01:46:47;24.00;81.90
26304;DHT22;57113;48.680;8.890;2022-08-21T01:49:14;24.00;82.00
26304;DHT22;57113;48.680;8.890;2022-08-21T01:51:41;23.90;81.80
26304;DHT22;57113;48.680;8.890;2022-08-21T01:54:06;24.00;82.00
26304;DHT22;57113;48.680;8.890;2022-08-21T01:56:40;24.00;81.90
26304;DHT22;57113;48.680;8.890;2022-08-21T01:59:07;23.90;82.50
26304;DHT22;57113;48.680;8.890;2022-08-21T02:01:33;23.90;81.80
26304;DHT22;57113;48.680;8.890;2022-08-21T02:03:59;23.90;81.80
26304;DHT22;57113;48.680;8.890;2022-08-21T02:06:25;23.90;81.70
26304;DHT22;57113;48.680;8.890;2022-08-21T02:08:52;23.90;81.80
26304;DHT22;57113;48.680;8.890;2022-08-21T02:11:19;23.90;81.70
26304;DHT22;57113;48.680;8.890;2022-08-21T02:13:44;23.90;81.70
26304;DHT22;57113;48.680;8.890;2022-08-21T02:16:11;23.90;81.70
26304;DHT22;57113;48.680;8.890;2022-08-21T02:18:37;23.90;81.60
26304;DHT22;57113;48.680;8.890;2022-08-21T02:21:04;23.90;81.60
26304;DHT22;57113;48.680;8.890;2022-08-21T02:23:30;23.90;81.60
26304;DHT22;57113;48.680;8.890;2022-08-21T02:26:02;23.90;81.50
26304;DHT22;57113;48.680;8.890;2022-08-21T02:28:28;23.90;81.60
26304;DHT22;57113;48.680;8.890;2022-08-21T02:30:55;23.90;81.50
26304;DHT22;57113;48.680;8.890;2022-08-21T02:33:21;23.90;81.40
26304;DHT22;57113;48.680;8.890;2022-08-21T02:35:48;23.90;81.50
26304;DHT22;57113;48.680;8.890;2022-08-21T02:38:20;23.90;81.40
26304;DHT22;57113;48.680;8.890;2022-08-21T02:40:48;23.90;81.40
26304;DHT22;57113;48.680;8.890;2022-08-21T02:43:15;23.90;81.40
26304;DHT22;57113;48.680;8.890;2022-08-21T02:45:43;23.80;81.40
26304;DHT22;57113;48.680;8.890;2022-08-21T02:48:12;23.80;81.40
26304;DHT22;57113;48.680;8.890;2022-08-21T02:50:42;23.80;81.40
26304;DHT22;57113;48.680;8.890;2022-08-21T02:53:11;23.80;81.40
26304;DHT22;57113;48.680;8.890;2022-08-21T02:55:40;23.90;81.40
26304;DHT22;57113;48.680;8.890;2022-08-21T02:58:07;23.80;81.30
26304;DHT22;57113;48.680;8.890;2022-08-21T03:00:35;23.80;81.30
26304;DHT22;57113;48.680;8.890;2022-08-21T03:03:02;23.80;81.30
26304;DHT22;57113;48.680;8.890;2022-08-21T03:05:30;23.80;82.00
26304;DHT22;57113;48.680;8.890;2022-08-21T03:07:57;23.80;81.20
26304;DHT22;57113;48.680;8.890;2022-08-21T03:10:24;23.80;81.20
26304;DHT22;57113;48.680;8.890;2022-08-21T03:12:51;23.70;81.10
26304;DHT22;57113;48.680;8.890;2022-08-21T03:15:19;23.80;81.10
26304;DHT22;57113;48.680;8.890;2022-08-21T03:17:46;23.70;81.00
26304;DHT22;57113;48.680;8.890;2022-08-21T03:20:15;23.80;81.10
26304;DHT22;57113;48.680;8.890;2022-08-21T03:22:41;23.70;81.00
26304;DHT22;57113;48.680;8.890;2022-08-21T03:25:07;23.70;81.00
26304;DHT22;57113;48.680;8.890;2022-08-21T03:27:34;23.70;81.00
26304;DHT22;57113;48.680;8.890;2022-08-21T03:30:00;23.70;81.00
26304;DHT22;57113;48.680;8.890;2022-08-21T03:32:26;23.70;81.00
26304;DHT22;57113;48.680;8.890;2022-08-21T03:34:52;23.70;81.00
26304;DHT22;57113;48.680;8.890;2022-08-21T03:37:18;23.70;81.00
26304;DHT22;57113;48.680;8.890;2022-08-21T03:39:44;23.70;80.90
26304;DHT22;57113;48.680;8.890;2022-08-21T03:42:10;23.70;80.90
26304;DHT22;57113;48.680;8.890;2022-08-21T03:44:36;23.70;80.90
26304;DHT22;57113;48.680;8.890;2022-08-21T03:47:03;23.70;80.90
26304;DHT22;57113;48.680;8.890;2022-08-21T03:49:29;23.70;80.90
26304;DHT22;57113;48.680;8.890;2022-08-21T03:51:54;23.70;80.80
26304;DHT22;57113;48.680;8.890;2022-08-21T03:54:20;23.70;80.80
26304;DHT22;57113;48.680;8.890;2022-08-21T03:56:46;23.60;80.80
26304;DHT22;57113;48.680;8.890;2022-08-21T03:59:13;23.60;80.70
26304;DHT22;57113;48.680;8.890;2022-08-21T04:01:39;23.60;80.80
26304;DHT22;57113;48.680;8.890;2022-08-21T04:04:05;23.60;80.80
26304;DHT22;57113;48.680;8.890;2022-08-21T04:06:31;23.60;80.70
26304;DHT22;57113;48.680;8.890;2022-08-21T04:08:57;23.60;80.80
26304;DHT22;57113;48.680;8.890;2022-08-21T04:11:23;23.60;80.80
26304;DHT22;57113;48.680;8.890;2022-08-21T04:13:49;23.60;80.70
26304;DHT22;57113;48.680;8.890;2022-08-21T04:16:15;23.60;80.70
26304;DHT22;57113;48.680;8.890;2022-08-21T04:18:41;23.60;80.70
26304;DHT22;57113;48.680;8.890;2022-08-21T04:21:10;23.60;80.70
26304;DHT22;57113;48.680;8.890;2022-08-21T04:23:37;23.60;80.70
26304;DHT22;57113;48.680;8.890;2022-08-21T04:26:03;23.60;80.70
26304;DHT22;57113;48.680;8.890;2022-08-21T04:28:29;23.60;80.70
26304;DHT22;57113;48.680;8.890;2022-08-21T04:30:55;23.60;80.70
26304;DHT22;57113;48.680;8.890;2022-08-21T04:33:21;23.50;80.60
26304;DHT22;57113;48.680;8.890;2022-08-21T04:35:48;23.50;80.50
26304;DHT22;57113;48.680;8.890;2022-08-21T04:38:14;23.50;80.60
26304;DHT22;57113;48.680;8.890;2022-08-21T04:40:40;23.50;80.50
26304;DHT22;57113;48.680;8.890;2022-08-21T04:43:08;23.50;80.60
26304;DHT22;57113;48.680;8.890;2022-08-21T04:45:38;23.50;80.50
26304;DHT22;57113;48.680;8.890;2022-08-21T04:48:06;23.50;80.60
26304;DHT22;57113;48.680;8.890;2022-08-21T04:50:58;23.50;80.60
26304;DHT22;57113;48.680;8.890;2022-08-21T04:55:54;23.40;80.60
26304;DHT22;57113;48.680;8.890;2022-08-21T04:58:21;23.40;80.60
26304;DHT22;57113;48.680;8.890;2022-08-21T05:00:48;23.40;80.50
26304;DHT22;57113;48.680;8.890;2022-08-21T05:03:15;23.40;80.50
26304;DHT22;57113;48.680;8.890;2022-08-21T05:05:42;23.40;80.50
26304;DHT22;57113;48.680;8.890;2022-08-21T05:08:11;23.40;80.60
26304;DHT22;57113;48.680;8.890;2022-08-21T05:10:37;23.40;80.50
26304;DHT22;57113;48.680;8.890;2022-08-21T05:13:03;23.40;80.50
26304;DHT22;57113;48.680;8.890;2022-08-21T05:15:31;23.40;80.50
26304;DHT22;57113;48.680;8.890;2022-08-21T05:17:57;23.40;80.50
26304;DHT22;57113;48.680;8.890;2022-08-21T05:20:23;23.40;80.50
26304;DHT22;57113;48.680;8.890;2022-08-21T05:22:49;23.40;81.20
26304;DHT22;57113;48.680;8.890;2022-08-21T05:25:15;23.40;80.50
26304;DHT22;57113;48.680;8.890;2022-08-21T05:27:41;23.30;80.40
26304;DHT22;57113;48.680;8.890;2022-08-21T05:30:07;23.30;80.40
26304;DHT22;57113;48.680;8.890;2022-08-21T05:32:34;23.30;80.30
26304;DHT22;57113;48.680;8.890;2022-08-21T05:35:00;23.30;80.50
26304;DHT22;57113;48.680;8.890;2022-08-21T05:37:26;23.30;80.50
26304;DHT22;57113;48.680;8.890;2022-08-21T05:39:52;23.30;80.70
26304;DHT22;57113;48.680;8.890;2022-08-21T05:42:17;23.30;80.40
26304;DHT22;57113;48.680;8.890;2022-08-21T05:44:43;23.30;80.50
26304;DHT22;57113;48.680;8.890;2022-08-21T05:47:10;23.30;80.50
26304;DHT22;57113;48.680;8.890;2022-08-21T05:49:36;23.30;80.60
26304;DHT22;57113;48.680;8.890;2022-08-21T05:52:03;23.30;80.70
26304;DHT22;57113;48.680;8.890;2022-08-21T05:54:29;23.30;80.70
26304;DHT22;57113;48.680;8.890;2022-08-21T05:56:55;23.30;80.60
26304;DHT22;57113;48.680;8.890;2022-08-21T05:59:21;23.30;80.70
26304;DHT22;57113;48.680;8.890;2022-08-21T06:01:47;23.30;80.80
26304;DHT22;57113;48.680;8.890;2022-08-21T06:04:13;23.30;80.70
26304;DHT22;57113;48.680;8.890;2022-08-21T06:06:39;23.30;80.90
26304;DHT22;57113;48.680;8.890;2022-08-21T06:09:05;23.30;80.90
26304;DHT22;57113;48.680;8.890;2022-08-21T06:11:32;23.30;80.90
26304;DHT22;57113;48.680;8.890;2022-08-21T06:13:58;23.30;80.90
26304;DHT22;57113;48.680;8.890;2022-08-21T06:16:25;23.30;80.90
26304;DHT22;57113;48.680;8.890;2022-08-21T06:18:51;23.30;81.00
26304;DHT22;57113;48.680;8.890;2022-08-21T06:21:17;23.30;80.90
26304;DHT22;57113;48.680;8.890;2022-08-21T06:23:44;23.30;81.00
26304;DHT22;57113;48.680;8.890;2022-08-21T06:26:12;23.30;81.00
26304;DHT22;57113;48.680;8.890;2022-08-21T06:28:39;23.30;81.10
26304;DHT22;57113;48.680;8.890;2022-08-21T06:31:17;23.20;81.00
26304;DHT22;57113;48.680;8.890;2022-08-21T06:33:44;23.30;81.10
26304;DHT22;57113;48.680;8.890;2022-08-21T06:36:10;23.30;81.10
26304;DHT22;57113;48.680;8.890;2022-08-21T06:38:37;23.30;81.20
26304;DHT22;57113;48.680;8.890;2022-08-21T06:41:03;23.20;81.20
26304;DHT22;57113;48.680;8.890;2022-08-21T06:43:29;23.30;81.30
26304;DHT22;57113;48.680;8.890;2022-08-21T06:45:56;23.20;81.20
26304;DHT22;57113;48.680;8.890;2022-08-21T06:48:22;23.30;81.30
26304;DHT22;57113;48.680;8.890;2022-08-21T06:50:48;23.20;81.30
26304;DHT22;57113;48.680;8.890;2022-08-21T06:53:17;23.20;81.30
26304;DHT22;57113;48.680;8.890;2022-08-21T06:55:43;23.30;82.20
26304;DHT22;57113;48.680;8.890;2022-08-21T06:58:11;23.30;81.50
26304;DHT22;57113;48.680;8.890;2022-08-21T07:00:42;23.30;81.50
26304;DHT22;57113;48.680;8.890;2022-08-21T07:03:32;23.30;82.30
26304;DHT22;57113;48.680;8.890;2022-08-21T07:05:58;23.30;81.50
26304;DHT22;57113;48.680;8.890;2022-08-21T07:08:25;23.30;81.60
26304;DHT22;57113;48.680;8.890;2022-08-21T07:10:53;23.30;81.60
26304;DHT22;57113;48.680;8.890;2022-08-21T07:13:19;23.30;81.60
26304;DHT22;57113;48.680;8.890;2022-08-21T07:15:44;23.30;81.60
26304;DHT22;57113;48.680;8.890;2022-08-21T07:18:10;23.30;81.50
26304;DHT22;57113;48.680;8.890;2022-08-21T07:20:37;23.30;81.60
26304;DHT22;57113;48.680;8.890;2022-08-21T07:23:06;23.30;81.70
26304;DHT22;57113;48.680;8.890;2022-08-21T07:25:33;23.30;81.70
26304;DHT22;57113;48.680;8.890;2022-08-21T07:27:58;23.30;81.80
26304;DHT22;57113;48.680;8.890;2022-08-21T07:30:24;23.30;81.90
26304;DHT22;57113;48.680;8.890;2022-08-21T07:32:51;23.30;81.80
26304;DHT22;57113;48.680;8.890;2022-08-21T07:35:18;23.30;81.70
26304;DHT22;57113;48.680;8.890;2022-08-21T07:37:44;23.30;81.80
26304;DHT22;57113;48.680;8.890;2022-08-21T07:40:10;23.30;81.90
26304;DHT22;57113;48.680;8.890;2022-08-21T07:42:40;23.40;82.00
26304;DHT22;57113;48.680;8.890;2022-08-21T07:45:07;23.40;82.00
26304;DHT22;57113;48.680;8.890;2022-08-21T07:47:32;23.40;82.00
26304;DHT22;57113;48.680;8.890;2022-08-21T07:49:58;23.40;81.90
26304;DHT22;57113;48.680;8.890;2022-08-21T07:52:24;23.50;82.00
26304;DHT22;57113;48.680;8.890;2022-08-21T07:54:49;23.50;82.00
26304;DHT22;57113;48.680;8.890;2022-08-21T07:57:15;23.50;81.80
26304;DHT22;57113;48.680;8.890;2022-08-21T07:59:41;23.50;82.50
26304;DHT22;57113;48.680;8.890;2022-08-21T08:02:07;23.60;81.80
26304;DHT22;57113;48.680;8.890;2022-08-21T08:04:32;23.60;81.90
26304;DHT22;57113;48.680;8.890;2022-08-21T08:06:58;23.60;81.90
26304;DHT22;57113;48.680;8.890;2022-08-21T08:09:24;23.60;81.30
26304;DHT22;57113;48.680;8.890;2022-08-21T08:11:49;23.40;79.70
26304;DHT22;57113;48.680;8.890;2022-08-21T08:14:15;23.40;80.10
26304;DHT22;57113;48.680;8.890;2022-08-21T08:16:41;23.40;80.30
26304;DHT22;57113;48.680;8.890;2022-08-21T08:19:07;23.50;80.40
26304;DHT22;57113;48.680;8.890;2022-08-21T08:21:33;23.50;80.40
26304;DHT22;57113;48.680;8.890;2022-08-21T08:24:00;23.60;80.50
26304;DHT22;57113;48.680;8.890;2022-08-21T08:26:26;23.60;80.30
26304;DHT22;57113;48.680;8.890;2022-08-21T08:28:52;23.60;80.40
26304;DHT22;57113;48.680;8.890;2022-08-21T08:31:18;23.70;80.40
26304;DHT22;57113;48.680;8.890;2022-08-21T08:33:44;23.70;80.30
26304;DHT22;57113;48.680;8.890;2022-08-21T08:36:15;23.80;80.30
26304;DHT22;57113;48.680;8.890;2022-08-21T08:38:41;23.80;80.40
26304;DHT22;57113;48.680;8.890;2022-08-21T08:43:41;23.80;80.20
26304;DHT22;57113;48.680;8.890;2022-08-21T08:46:13;23.90;80.00
26304;DHT22;57113;48.680;8.890;2022-08-21T08:52:00;23.90;80.00
26304;DHT22;57113;48.680;8.890;2022-08-21T08:54:34;23.90;79.90
26304;DHT22;57113;48.680;8.890;2022-08-21T08:57:03;23.90;79.90
26304;DHT22;57113;48.680;8.890;2022-08-21T08:59:40;24.00;79.90
26304;DHT22;57113;48.680;8.890;2022-08-21T09:02:09;24.10;79.90
26304;DHT22;57113;48.680;8.890;2022-08-21T09:04:36;24.10;79.90
26304;DHT22;57113;48.680;8.890;2022-08-21T09:07:11;24.10;79.80
26304;DHT22;57113;48.680;8.890;2022-08-21T09:12:29;24.20;79.80
26304;DHT22;57113;48.680;8.890;2022-08-21T09:18:03;24.20;79.60
26304;DHT22;57113;48.680;8.890;2022-08-21T09:20:37;24.30;79.60
26304;DHT22;57113;48.680;8.890;2022-08-21T09:26:14;24.30;79.50
26304;DHT22;57113;48.680;8.890;2022-08-21T09:28:40;24.30;79.40
26304;DHT22;57113;48.680;8.890;2022-08-21T09:33:42;24.40;79.50
26304;DHT22;57113;48.680;8.890;2022-08-21T09:36:08;24.30;79.50
26304;DHT22;57113;48.680;8.890;2022-08-21T09:38:35;24.40;79.50
26304;DHT22;57113;48.680;8.890;2022-08-21T09:41:08;24.50;79.40
26304;DHT22;57113;48.680;8.890;2022-08-21T09:43:35;24.40;79.40
26304;DHT22;57113;48.680;8.890;2022-08-21T09:46:08;24.40;79.30
26304;DHT22;57113;48.680;8.890;2022-08-21T09:48:58;24.50;79.30
26304;DHT22;57113;48.680;8.890;2022-08-21T09:51:30;24.50;79.10
26304;DHT22;57113;48.680;8.890;2022-08-21T09:56:36;24.60;79.00
26304;DHT22;57113;48.680;8.890;2022-08-21T10:01:52;24.60;78.90
26304;DHT22;57113;48.680;8.890;2022-08-21T10:04:28;24.60;79.00
26304;DHT22;57113;48.680;8.890;2022-08-21T10:06:54;24.60;78.80
26304;DHT22;57113;48.680;8.890;2022-08-21T10:09:20;24.60;78.90
26304;DHT22;57113;48.680;8.890;2022-08-21T10:11:56;24.60;78.70
26304;DHT22;57113;48.680;8.890;2022-08-21T10:17:07;24.60;78.80
26304;DHT22;57113;48.680;8.890;2022-08-21T10:20:01;24.50;78.70
26304;DHT22;57113;48.680;8.890;2022-08-21T10:25:23;24.50;78.80
26304;DHT22;57113;48.680;8.890;2022-08-21T10:31:03;24.60;78.70
26304;DHT22;57113;48.680;8.890;2022-08-21T10:34:28;24.60;78.60
26304;DHT22;57113;48.680;8.890;2022-08-21T10:42:43;24.70;78.00
26304;DHT22;57113;48.680;8.890;2022-08-21T10:48:05;24.80;77.90
26304;DHT22;57113;48.680;8.890;2022-08-21T10:50:50;24.90;77.80
26304;DHT22;57113;48.680;8.890;2022-08-21T11:01:34;25.00;77.40
26304;DHT22;57113;48.680;8.890;2022-08-21T11:04:18;25.00;77.50
26304;DHT22;57113;48.680;8.890;2022-08-21T11:06:52;25.00;77.20
26304;DHT22;57113;48.680;8.890;2022-08-21T11:09:20;25.00;77.20
26304;DHT22;57113;48.680;8.890;2022-08-21T11:12:18;25.00;76.80
26304;DHT22;57113;48.680;8.890;2022-08-21T11:14:51;25.10;76.70
26304;DHT22;57113;48.680;8.890;2022-08-21T11:17:28;25.10;77.40
26304;DHT22;57113;48.680;8.890;2022-08-21T11:20:12;25.10;76.60
26304;DHT22;57113;48.680;8.890;2022-08-21T11:22:51;25.10;76.70
26304;DHT22;57113;48.680;8.890;2022-08-21T11:25:50;25.10;76.70
26304;DHT22;57113;48.680;8.890;2022-08-21T11:28:22;25.10;76.50
26304;DHT22;57113;48.680;8.890;2022-08-21T11:31:00;25.10;76.60
26304;DHT22;57113;48.680;8.890;2022-08-21T11:36:30;25.10;76.20
26304;DHT22;57113;48.680;8.890;2022-08-21T11:39:06;25.20;76.30
26304;DHT22;57113;48.680;8.890;2022-08-21T11:41:50;25.20;75.80
26304;DHT22;57113;48.680;8.890;2022-08-21T11:44:23;25.30;76.00
26304;DHT22;57113;48.680;8.890;2022-08-21T11:52:23;25.40;75.60
26304;DHT22;57113;48.680;8.890;2022-08-21T11:55:00;25.40;75.40
26304;DHT22;57113;48.680;8.890;2022-08-21T12:02:50;25.40;75.50
26304;DHT22;57113;48.680;8.890;2022-08-21T12:05:33;25.40;75.60
26304;DHT22;57113;48.680;8.890;2022-08-21T12:08:02;25.30;75.80
26304;DHT22;57113;48.680;8.890;2022-08-21T12:10:35;25.20;76.00
26304;DHT22;57113;48.680;8.890;2022-08-21T12:13:22;25.20;76.20
26304;DHT22;57113;48.680;8.890;2022-08-21T12:15:48;25.20;76.30
26304;DHT22;57113;48.680;8.890;2022-08-21T12:18:29;25.10;76.00
26304;DHT22;57113;48.680;8.890;2022-08-21T12:21:26;25.00;75.90
26304;DHT22;57113;48.680;8.890;2022-08-21T12:26:57;25.00;70.90
26304;DHT22;57113;48.680;8.890;2022-08-21T12:29:31;24.90;71.60
26304;DHT22;57113;48.680;8.890;2022-08-21T12:32:02;24.90;72.00
26304;DHT22;57113;48.680;8.890;2022-08-21T12:34:40;24.80;72.30
26304;DHT22;57113;48.680;8.890;2022-08-21T12:37:15;24.70;72.80
26304;DHT22;57113;48.680;8.890;2022-08-21T12:39:45;24.70;73.10
26304;DHT22;57113;48.680;8.890;2022-08-21T12:42:19;24.60;73.60
26304;DHT22;57113;48.680;8.890;2022-08-21T12:44:47;24.60;73.70
26304;DHT22;57113;48.680;8.890;2022-08-21T12:47:48;24.60;74.00
26304;DHT22;57113;48.680;8.890;2022-08-21T12:50:24;24.50;74.30
26304;DHT22;57113;48.680;8.890;2022-08-21T12:53:22;24.60;74.50
26304;DHT22;57113;48.680;8.890;2022-08-21T12:55:49;24.50;74.60
26304;DHT22;57113;48.680;8.890;2022-08-21T12:58:19;24.60;74.80
26304;DHT22;57113;48.680;8.890;2022-08-21T13:03:44;24.50;75.00
26304;DHT22;57113;48.680;8.890;2022-08-21T13:06:18;24.60;74.80
26304;DHT22;57113;48.680;8.890;2022-08-21T13:08:45;24.60;74.90
26304;DHT22;57113;48.680;8.890;2022-08-21T13:11:14;24.70;75.40
26304;DHT22;57113;48.680;8.890;2022-08-21T13:13:41;24.80;74.80
26304;DHT22;57113;48.680;8.890;2022-08-21T13:16:08;24.80;74.70
26304;DHT22;57113;48.680;8.890;2022-08-21T13:18:36;24.90;74.70
26304;DHT22;57113;48.680;8.890;2022-08-21T13:21:06;24.90;74.30
26304;DHT22;57113;48.680;8.890;2022-08-21T13:23:32;25.00;74.20
26304;DHT22;57113;48.680;8.890;2022-08-21T13:25:58;25.00;74.10
26304;DHT22;57113;48.680;8.890;2022-08-21T13:28:31;25.00;74.10
26304;DHT22;57113;48.680;8.890;2022-08-21T13:30:58;25.10;74.10
26304;DHT22;57113;48.680;8.890;2022-08-21T13:33:29;25.10;73.90
26304;DHT22;57113;48.680;8.890;2022-08-21T13:38:31;25.20;73.60
26304;DHT22;57113;48.680;8.890;2022-08-21T13:43:46;25.30;73.70
26304;DHT22;57113;48.680;8.890;2022-08-21T13:46:13;25.30;73.70
26304;DHT22;57113;48.680;8.890;2022-08-21T13:48:41;25.30;73.60
26304;DHT22;57113;48.680;8.890;2022-08-21T13:51:08;25.30;73.40
26304;DHT22;57113;48.680;8.890;2022-08-21T13:56:06;25.40;73.40
26304;DHT22;57113;48.680;8.890;2022-08-21T14:04:43;25.40;73.60
26304;DHT22;57113;48.680;8.890;2022-08-21T14:07:29;25.40;73.50
26304;DHT22;57113;48.680;8.890;2022-08-21T14:09:55;25.40;73.60
26304;DHT22;57113;48.680;8.890;2022-08-21T14:12:42;25.50;73.70
26304;DHT22;57113;48.680;8.890;2022-08-21T14:15:09;25.50;73.70
26304;DHT22;57113;48.680;8.890;2022-08-21T14:17:38;25.40;73.70
26304;DHT22;57113;48.680;8.890;2022-08-21T14:20:10;25.40;73.90
26304;DHT22;57113;48.680;8.890;2022-08-21T14:22:47;25.40;74.00
26304;DHT22;57113;48.680;8.890;2022-08-21T14:27:57;25.40;74.00
26304;DHT22;57113;48.680;8.890;2022-08-21T14:30:34;25.40;74.00
26304;DHT22;57113;48.680;8.890;2022-08-21T14:33:02;25.40;74.00
26304;DHT22;57113;48.680;8.890;2022-08-21T14:35:29;25.40;73.90
26304;DHT22;57113;48.680;8.890;2022-08-21T14:37:55;25.40;74.00
26304;DHT22;57113;48.680;8.890;2022-08-21T14:40:23;25.40;74.00
26304;DHT22;57113;48.680;8.890;2022-08-21T14:42:49;25.40;74.80
26304;DHT22;57113;48.680;8.890;2022-08-21T14:45:24;25.40;74.00
26304;DHT22;57113;48.680;8.890;2022-08-21T14:47:51;25.40;74.20
26304;DHT22;57113;48.680;8.890;2022-08-21T14:50:16;25.50;74.20
26304;DHT22;57113;48.680;8.890;2022-08-21T14:52:42;25.50;74.00
26304;DHT22;57113;48.680;8.890;2022-08-21T14:55:11;25.50;74.10
26304;DHT22;57113;48.680;8.890;2022-08-21T14:57:43;25.50;74.20
26304;DHT22;57113;48.680;8.890;2022-08-21T15:00:12;25.40;74.10
26304;DHT22;57113;48.680;8.890;2022-08-21T15:02:38;25.40;74.30
26304;DHT22;57113;48.680;8.890;2022-08-21T15:05:04;25.40;75.10
26304;DHT22;57113;48.680;8.890;2022-08-21T15:07:30;25.40;74.20
26304;DHT22;57113;48.680;8.890;2022-08-21T15:09:56;25.40;74.40
26304;DHT22;57113;48.680;8.890;2022-08-21T15:12:22;25.40;74.30
26304;DHT22;57113;48.680;8.890;2022-08-21T15:14:48;25.50;74.30
26304;DHT22;57113;48.680;8.890;2022-08-21T15:17:14;25.40;74.10
26304;DHT22;57113;48.680;8.890;2022-08-21T15:19:40;25.50;74.20
26304;DHT22;57113;48.680;8.890;2022-08-21T15:22:06;25.50;74.20
26304;DHT22;57113;48.680;8.890;2022-08-21T15:24:32;25.50;74.20
26304;DHT22;57113;48.680;8.890;2022-08-21T15:27:00;25.40;74.30
26304;DHT22;57113;48.680;8.890;2022-08-21T15:29:26;25.40;74.40
26304;DHT22;57113;48.680;8.890;2022-08-21T15:32:00;25.40;74.40
26304;DHT22;57113;48.680;8.890;2022-08-21T15:34:27;25.40;74.30
26304;DHT22;57113;48.680;8.890;2022-08-21T15:36:54;25.40;74.60
26304;DHT22;57113;48.680;8.890;2022-08-21T15:39:19;25.40;74.40
26304;DHT22;57113;48.680;8.890;2022-08-21T15:41:45;25.40;74.40
26304;DHT22;57113;48.680;8.890;2022-08-21T15:44:12;25.40;74.30
26304;DHT22;57113;48.680;8.890;2022-08-21T15:46:39;25.50;74.60
26304;DHT22;57113;48.680;8.890;2022-08-21T15:49:05;25.40;74.60
26304;DHT22;57113;48.680;8.890;2022-08-21T15:51:33;25.50;74.60
26304;DHT22;57113;48.680;8.890;2022-08-21T15:53:59;25.40;74.60
26304;DHT22;57113;48.680;8.890;2022-08-21T15:56:34;25.40;74.60
26304;DHT22;57113;48.680;8.890;2022-08-21T15:59:04;25.40;74.50
26304;DHT22;57113;48.680;8.890;2022-08-21T16:01:30;25.40;74.50
26304;DHT22;57113;48.680;8.890;2022-08-21T16:03:56;25.50;74.40
26304;DHT22;57113;48.680;8.890;2022-08-21T16:06:22;25.40;74.50
26304;DHT22;57113;48.680;8.890;2022-08-21T16:08:48;25.40;74.50
26304;DHT22;57113;48.680;8.890;2022-08-21T16:11:14;25.40;74.60
26304;DHT22;57113;48.680;8.890;2022-08-21T16:13:43;25.40;74.60
26304;DHT22;57113;48.680;8.890;2022-08-21T16:16:11;25.40;74.40
26304;DHT22;57113;48.680;8.890;2022-08-21T16:18:38;25.40;75.30
26304;DHT22;57113;48.680;8.890;2022-08-21T16:21:05;25.40;74.60
26304;DHT22;57113;48.680;8.890;2022-08-21T16:23:32;25.40;74.50
26304;DHT22;57113;48.680;8.890;2022-08-21T16:26:00;25.40;74.60
26304;DHT22;57113;48.680;8.890;2022-08-21T16:28:27;25.40;74.50
26304;DHT22;57113;48.680;8.890;2022-08-21T16:30:53;25.40;74.50
26304;DHT22;57113;48.680;8.890;2022-08-21T16:33:27;25.40;74.70
26304;DHT22;57113;48.680;8.890;2022-08-21T16:35:54;25.40;74.70
26304;DHT22;57113;48.680;8.890;2022-08-21T16:38:20;25.40;74.60
26304;DHT22;57113;48.680;8.890;2022-08-21T16:40:46;25.40;74.60
26304;DHT22;57113;48.680;8.890;2022-08-21T16:43:12;25.40;74.80
26304;DHT22;57113;48.680;8.890;2022-08-21T16:45:38;25.40;74.70
26304;DHT22;57113;48.680;8.890;2022-08-21T16:48:06;25.40;74.80
26304;DHT22;57113;48.680;8.890;2022-08-21T16:50:34;25.40;74.80
26304;DHT22;57113;48.680;8.890;2022-08-21T16:53:00;25.40;74.70
26304;DHT22;57113;48.680;8.890;2022-08-21T16:55:26;25.40;74.70
26304;DHT22;57113;48.680;8.890;2022-08-21T16:57:53;25.40;74.70
26304;DHT22;57113;48.680;8.890;2022-08-21T17:00:19;25.40;74.80
26304;DHT22;57113;48.680;8.890;2022-08-21T17:02:50;25.40;74.80
26304;DHT22;57113;48.680;8.890;2022-08-21T17:05:18;25.40;74.90
26304;DHT22;57113;48.680;8.890;2022-08-21T17:07:44;25.30;74.80
26304;DHT22;57113;48.680;8.890;2022-08-21T17:10:12;25.30;74.80